createdAt,value
2022-10-16T00:00:55.587Z,12.40
2022-10-16T00:03:26.569Z,12.40
2022-10-16T00:06:01.262Z,12.40
2022-10-16T00:08:28.609Z,12.40
2022-10-16T00:11:00.780Z,12.30
2022-10-16T00:13:27.564Z,12.30
2022-10-16T00:15:57.048Z,12.30
2022-10-16T00:18:24.596Z,12.30
2022-10-16T00:20:51.677Z,12.30
2022-10-16T00:23:18.607Z,12.30
2022-10-16T00:25:45.457Z,12.30
2022-10-16T00:28:12.325Z,12.30
2022-10-16T00:30:40.189Z,12.20
2022-10-16T00:33:07.032Z,12.20
2022-10-16T00:35:33.848Z,12.20
2022-10-16T00:38:00.677Z,12.20
2022-10-16T00:40:29.249Z,12.20
2022-10-16T00:42:56.145Z,12.20
2022-10-16T00:45:23.053Z,12.20
2022-10-16T00:47:52.475Z,12.20
2022-10-16T00:50:25.045Z,12.10
2022-10-16T00:52:52.447Z,12.10
2022-10-16T00:55:20.009Z,12.10
2022-10-16T00:57:47.165Z,12.10
2022-10-16T01:00:17.598Z,12.10
2022-10-16T01:02:44.667Z,12.10
2022-10-16T01:05:11.505Z,12.10
2022-10-16T01:08:01.146Z,12.10
2022-10-16T01:10:42.936Z,12.10
2022-10-16T01:13:18.373Z,12.10
2022-10-16T01:15:57.025Z,12.10
2022-10-16T01:18:33.879Z,12.10
2022-10-16T01:21:05.909Z,12.10
2022-10-16T01:24:02.638Z,12.10
2022-10-16T01:26:57.689Z,12.20
2022-10-16T01:29:29.546Z,12.10
2022-10-16T01:32:02.795Z,12.10
2022-10-16T01:35:16.062Z,12.10
2022-10-16T01:37:54.648Z,12.10
2022-10-16T01:40:23.703Z,12.10
2022-10-16T01:45:31.000Z,12.20
2022-10-16T01:47:58.973Z,12.20
2022-10-16T01:50:27.045Z,12.20
2022-10-16T01:52:56.196Z,12.20
2022-10-16T01:55:27.785Z,12.20
2022-10-16T01:57:55.424Z,12.20
2022-10-16T02:00:23.325Z,12.20
2022-10-16T02:02:53.673Z,12.20
2022-10-16T02:05:27.496Z,12.20
2022-10-16T02:07:54.297Z,12.10
2022-10-16T02:10:21.720Z,12.10
2022-10-16T02:13:04.833Z,12.10
2022-10-16T02:15:31.659Z,12.10
2022-10-16T02:17:58.526Z,12.10
2022-10-16T02:20:28.522Z,12.10
2022-10-16T02:22:56.896Z,12.10
2022-10-16T02:25:32.803Z,12.10
2022-10-16T02:28:14.775Z,12.00
2022-10-16T02:31:01.344Z,12.00
2022-10-16T02:33:29.881Z,12.00
2022-10-16T02:35:57.921Z,12.00
2022-10-16T02:38:25.796Z,12.00
2022-10-16T02:40:52.682Z,12.00
2022-10-16T02:43:19.512Z,12.00
2022-10-16T02:45:46.415Z,11.90
2022-10-16T02:48:13.288Z,11.90
2022-10-16T02:50:40.105Z,11.90
2022-10-16T02:53:06.933Z,12.00
2022-10-16T02:55:33.785Z,12.00
2022-10-16T02:58:00.531Z,12.00
2022-10-16T03:00:27.302Z,12.00
2022-10-16T03:02:54.147Z,12.00
2022-10-16T03:07:53.680Z,12.00
2022-10-16T03:10:20.689Z,11.90
2022-10-16T03:12:47.452Z,11.90
2022-10-16T03:15:14.227Z,11.90
2022-10-16T03:17:41.091Z,11.90
2022-10-16T03:20:08.274Z,11.80
2022-10-16T03:22:35.033Z,11.80
2022-10-16T03:25:01.965Z,11.80
2022-10-16T03:27:29.080Z,11.70
2022-10-16T03:29:56.019Z,11.70
2022-10-16T03:32:23.207Z,11.70
2022-10-16T03:34:50.157Z,11.70
2022-10-16T03:37:17.042Z,11.60
2022-10-16T03:39:43.838Z,11.60
2022-10-16T03:42:10.681Z,11.50
2022-10-16T03:44:37.670Z,11.50
2022-10-16T03:47:04.542Z,11.50
2022-10-16T03:49:31.322Z,11.50
2022-10-16T03:51:58.157Z,11.50
2022-10-16T03:54:24.990Z,11.40
2022-10-16T03:56:51.760Z,11.40
2022-10-16T03:59:18.565Z,11.40
2022-10-16T04:01:45.366Z,11.40
2022-10-16T04:04:12.247Z,11.40
2022-10-16T04:06:39.066Z,11.40
2022-10-16T04:09:05.907Z,11.40
2022-10-16T04:11:32.726Z,11.40
2022-10-16T04:14:00.171Z,11.40
2022-10-16T04:16:27.006Z,11.40
2022-10-16T04:18:53.848Z,11.40
2022-10-16T04:21:20.795Z,11.40
2022-10-16T04:23:47.553Z,11.40
2022-10-16T04:26:14.383Z,11.40
2022-10-16T04:28:41.342Z,11.40
2022-10-16T04:31:08.389Z,11.40
2022-10-16T04:33:35.342Z,11.30
2022-10-16T04:36:03.910Z,11.30
2022-10-16T04:38:31.046Z,11.30
2022-10-16T04:40:57.959Z,11.30
2022-10-16T04:43:25.106Z,11.30
2022-10-16T04:45:52.075Z,11.30
2022-10-16T04:48:19.425Z,11.30
2022-10-16T04:50:47.685Z,11.30
2022-10-16T04:53:19.534Z,11.40
2022-10-16T04:55:46.833Z,11.40
2022-10-16T04:58:13.691Z,11.40
2022-10-16T05:00:40.670Z,11.40
2022-10-16T05:03:09.817Z,11.50
2022-10-16T05:05:37.362Z,11.50
2022-10-16T05:08:04.949Z,11.50
2022-10-16T05:10:31.911Z,11.50
2022-10-16T05:12:58.997Z,11.50
2022-10-16T05:15:26.153Z,11.50
2022-10-16T05:17:56.822Z,11.50
2022-10-16T05:20:24.181Z,11.50
2022-10-16T05:22:51.037Z,11.50
2022-10-16T05:25:17.953Z,11.50
2022-10-16T05:27:44.869Z,11.50
2022-10-16T05:30:12.577Z,11.50
2022-10-16T05:32:39.627Z,11.50
2022-10-16T05:35:10.097Z,11.50
2022-10-16T05:37:39.438Z,11.50
2022-10-16T05:40:06.873Z,11.50
2022-10-16T05:42:33.714Z,11.40
2022-10-16T05:45:00.756Z,11.40
2022-10-16T05:47:28.609Z,11.40
2022-10-16T05:49:56.448Z,11.40
2022-10-16T05:52:23.258Z,11.40
2022-10-16T05:54:50.605Z,11.50
2022-10-16T05:57:17.505Z,11.50
2022-10-16T05:59:44.312Z,11.50
2022-10-16T06:02:14.954Z,11.50
2022-10-16T06:04:41.852Z,11.60
2022-10-16T06:07:08.901Z,11.60
2022-10-16T06:09:35.746Z,11.60
2022-10-16T06:12:02.632Z,11.70
2022-10-16T06:14:29.424Z,11.70
2022-10-16T06:16:56.227Z,11.70
2022-10-16T06:19:23.911Z,11.70
2022-10-16T06:21:51.034Z,11.80
2022-10-16T06:24:17.938Z,11.80
2022-10-16T06:26:44.744Z,11.80
2022-10-16T06:29:11.666Z,11.80
2022-10-16T06:31:38.464Z,11.80
2022-10-16T06:34:07.202Z,11.80
2022-10-16T06:36:34.653Z,11.80
2022-10-16T06:39:01.441Z,11.80
2022-10-16T06:41:28.280Z,11.90
2022-10-16T06:43:55.145Z,12.00
2022-10-16T06:46:24.488Z,12.00
2022-10-16T06:48:51.417Z,12.10
2022-10-16T06:51:20.790Z,12.10
2022-10-16T06:54:05.389Z,12.20
2022-10-16T06:56:33.137Z,12.20
2022-10-16T06:59:00.063Z,12.20
2022-10-16T07:01:27.454Z,12.30
2022-10-16T07:03:54.570Z,12.30
2022-10-16T07:06:24.016Z,12.30
2022-10-16T07:08:51.343Z,12.30
2022-10-16T07:11:20.449Z,12.30
2022-10-16T07:13:51.057Z,12.30
2022-10-16T07:16:23.878Z,12.40
2022-10-16T07:18:55.183Z,12.40
2022-10-16T07:21:23.595Z,12.40
2022-10-16T07:23:54.535Z,12.40
2022-10-16T07:26:22.094Z,12.50
2022-10-16T07:28:49.365Z,12.60
2022-10-16T07:31:17.188Z,12.60
2022-10-16T07:33:46.211Z,12.70
2022-10-16T07:36:16.234Z,12.80
2022-10-16T07:38:44.126Z,12.80
2022-10-16T07:41:20.512Z,12.90
2022-10-16T07:43:52.593Z,12.90
2022-10-16T07:46:20.732Z,12.90
2022-10-16T07:48:49.020Z,12.90
2022-10-16T07:51:18.234Z,12.90
2022-10-16T07:53:45.043Z,12.90
2022-10-16T07:56:12.825Z,12.80
2022-10-16T07:58:39.884Z,12.80
2022-10-16T08:01:09.069Z,12.80
2022-10-16T08:03:35.912Z,12.80
2022-10-16T08:06:03.534Z,12.80
2022-10-16T08:08:30.918Z,12.90
2022-10-16T08:10:57.879Z,13.00
2022-10-16T08:13:24.922Z,13.20
2022-10-16T08:15:52.011Z,13.30
2022-10-16T08:18:18.828Z,13.30
2022-10-16T08:20:45.641Z,13.30
2022-10-16T08:23:13.551Z,13.40
2022-10-16T08:25:41.071Z,13.40
2022-10-16T08:28:09.349Z,13.50
2022-10-16T08:30:36.320Z,13.50
2022-10-16T08:33:03.298Z,13.50
2022-10-16T08:35:30.111Z,13.60
2022-10-16T08:37:56.950Z,13.60
2022-10-16T08:40:29.301Z,13.60
2022-10-16T08:43:14.972Z,13.70
2022-10-16T08:46:18.414Z,13.80
2022-10-16T08:48:59.505Z,13.90
2022-10-16T08:51:30.579Z,13.90
2022-10-16T08:54:03.823Z,13.90
2022-10-16T08:56:30.708Z,14.00
2022-10-16T08:59:01.532Z,14.10
2022-10-16T09:01:42.169Z,14.10
2022-10-16T09:04:27.757Z,14.20
2022-10-16T09:07:06.078Z,14.20
2022-10-16T09:09:38.830Z,14.30
2022-10-16T09:12:09.336Z,14.40
2022-10-16T09:14:42.108Z,14.50
2022-10-16T09:17:54.233Z,14.60
2022-10-16T09:20:31.546Z,14.60
2022-10-16T09:23:22.042Z,14.70
2022-10-16T09:25:51.352Z,14.80
2022-10-16T09:28:19.188Z,14.80
2022-10-16T09:30:49.522Z,14.90
2022-10-16T09:33:17.250Z,14.90
2022-10-16T09:35:55.395Z,15.00
2022-10-16T09:38:29.433Z,15.10
2022-10-16T09:41:02.397Z,15.20
2022-10-16T09:43:41.561Z,15.30
2022-10-16T09:46:22.141Z,15.40
2022-10-16T09:48:50.685Z,15.50
2022-10-16T09:51:32.483Z,15.60
2022-10-16T09:54:13.537Z,15.80
2022-10-16T09:56:40.507Z,16.00
2022-10-16T09:59:14.227Z,16.10
2022-10-16T10:01:47.511Z,16.10
2022-10-16T10:04:14.530Z,16.10
2022-10-16T10:06:46.065Z,16.10
2022-10-16T10:09:35.626Z,16.20
2022-10-16T10:12:04.134Z,16.20
2022-10-16T10:14:41.042Z,16.10
2022-10-16T10:17:07.865Z,16.10
2022-10-16T10:19:45.157Z,16.10
2022-10-16T10:22:18.703Z,16.10
2022-10-16T10:24:55.869Z,16.10
2022-10-16T10:27:27.416Z,16.20
2022-10-16T10:29:55.850Z,16.20
2022-10-16T10:32:35.249Z,16.20
2022-10-16T10:35:31.411Z,16.20
2022-10-16T10:38:15.477Z,16.30
2022-10-16T10:40:42.289Z,16.50
2022-10-16T10:43:21.510Z,16.60
2022-10-16T10:45:52.965Z,16.70
2022-10-16T10:48:45.101Z,16.90
2022-10-16T10:51:17.648Z,17.00
2022-10-16T10:54:15.597Z,17.20
2022-10-16T10:56:57.168Z,17.20
2022-10-16T10:59:50.007Z,17.20
2022-10-16T11:02:39.372Z,17.20
2022-10-16T11:05:28.704Z,17.20
2022-10-16T11:08:02.672Z,17.20
2022-10-16T11:10:55.655Z,17.30
2022-10-16T11:13:36.981Z,17.40
2022-10-16T11:16:14.250Z,17.40
2022-10-16T11:19:26.698Z,17.50
2022-10-16T11:22:15.086Z,17.60
2022-10-16T11:25:16.278Z,17.50
2022-10-16T11:27:50.857Z,17.30
2022-10-16T11:30:30.881Z,17.20
2022-10-16T11:33:09.536Z,17.00
2022-10-16T11:35:44.119Z,16.80
2022-10-16T11:38:32.349Z,16.70
2022-10-16T11:41:16.140Z,16.60
2022-10-16T11:43:47.443Z,16.60
2022-10-16T11:46:19.140Z,16.50
2022-10-16T11:49:09.550Z,16.50
2022-10-16T11:51:58.363Z,16.40
2022-10-16T11:55:03.515Z,16.40
2022-10-16T11:57:55.544Z,16.40
2022-10-16T12:00:37.800Z,16.40
2022-10-16T12:03:23.083Z,16.70
2022-10-16T12:06:00.051Z,16.90
2022-10-16T12:08:27.658Z,17.10
2022-10-16T12:10:56.270Z,17.20
2022-10-16T12:13:35.592Z,17.30
2022-10-16T12:16:15.043Z,17.40
2022-10-16T12:18:46.208Z,17.50
2022-10-16T12:21:16.753Z,17.60
2022-10-16T12:23:52.033Z,17.50
2022-10-16T12:26:53.611Z,17.60
2022-10-16T12:29:25.146Z,17.70
2022-10-16T12:31:58.283Z,17.70
2022-10-16T12:34:44.370Z,17.80
2022-10-16T12:37:20.694Z,17.60
2022-10-16T12:39:49.271Z,17.30
2022-10-16T12:42:28.842Z,17.10
2022-10-16T12:44:56.368Z,16.90
2022-10-16T12:47:36.199Z,16.80
2022-10-16T12:50:09.051Z,16.90
2022-10-16T12:52:40.055Z,17.10
2022-10-16T12:55:16.963Z,17.20
2022-10-16T12:58:21.295Z,17.40
2022-10-16T13:01:12.602Z,17.60
2022-10-16T13:04:18.402Z,17.70
2022-10-16T13:07:18.686Z,17.50
2022-10-16T13:10:27.620Z,17.10
2022-10-16T13:13:25.456Z,16.80
2022-10-16T13:15:56.033Z,16.60
2022-10-16T13:18:31.643Z,16.40
2022-10-16T13:21:17.751Z,16.30
2022-10-16T13:24:09.336Z,16.10
2022-10-16T13:26:45.097Z,15.90
2022-10-16T13:29:12.986Z,15.80
2022-10-16T13:31:40.438Z,15.70
2022-10-16T13:34:12.268Z,15.90
2022-10-16T13:36:53.686Z,16.00
2022-10-16T13:39:27.359Z,16.20
2022-10-16T13:42:21.834Z,16.30
2022-10-16T13:44:52.089Z,16.40
2022-10-16T13:47:20.376Z,16.40
2022-10-16T13:49:47.720Z,16.50
2022-10-16T13:52:21.983Z,16.50
2022-10-16T13:54:48.935Z,16.50
2022-10-16T13:57:26.889Z,16.50
2022-10-16T13:59:54.779Z,16.50
2022-10-16T14:02:40.131Z,16.50
2022-10-16T14:05:11.661Z,16.40
2022-10-16T14:07:39.203Z,16.40
2022-10-16T14:10:25.690Z,16.40
2022-10-16T14:13:01.644Z,16.40
2022-10-16T14:15:44.245Z,16.40
2022-10-16T14:18:28.363Z,16.30
2022-10-16T14:21:03.461Z,16.20
2022-10-16T14:23:40.268Z,16.10
2022-10-16T14:26:19.158Z,16.00
2022-10-16T14:28:47.371Z,15.90
2022-10-16T14:31:27.950Z,15.80
2022-10-16T14:33:55.240Z,15.60
2022-10-16T14:36:22.921Z,15.50
2022-10-16T14:39:00.141Z,15.40
2022-10-16T14:41:44.889Z,15.30
2022-10-16T14:44:20.196Z,15.20
2022-10-16T14:46:47.321Z,15.20
2022-10-16T14:49:21.488Z,15.20
2022-10-16T14:51:48.682Z,15.10
2022-10-16T14:54:17.175Z,15.10
2022-10-16T14:56:50.123Z,15.10
2022-10-16T14:59:39.748Z,15.10
2022-10-16T15:02:32.902Z,15.10
2022-10-16T15:05:03.743Z,15.10
2022-10-16T15:07:30.823Z,15.00
2022-10-16T15:09:58.676Z,15.00
2022-10-16T15:12:25.468Z,15.00
2022-10-16T15:14:56.268Z,15.00
2022-10-16T15:17:23.744Z,15.00
2022-10-16T15:19:52.179Z,15.00
2022-10-16T15:22:19.072Z,15.00
2022-10-16T15:24:45.957Z,14.90
2022-10-16T15:27:12.741Z,14.80
2022-10-16T15:29:39.512Z,14.80
2022-10-16T15:32:06.363Z,14.80
2022-10-16T15:34:39.347Z,14.70
2022-10-16T15:37:06.142Z,14.60
2022-10-16T15:39:34.204Z,14.50
2022-10-16T15:42:02.502Z,14.50
2022-10-16T15:44:31.534Z,14.50
2022-10-16T15:46:58.329Z,14.50
2022-10-16T15:49:25.135Z,14.40
2022-10-16T15:51:53.824Z,14.40
2022-10-16T15:54:23.664Z,14.40
2022-10-16T15:57:16.741Z,14.40
2022-10-16T16:03:06.621Z,14.30
2022-10-16T16:05:34.381Z,14.30
2022-10-16T16:08:01.371Z,14.30
2022-10-16T16:10:28.205Z,14.20
2022-10-16T16:12:55.177Z,14.10
2022-10-16T16:15:25.680Z,14.00
2022-10-16T16:17:52.572Z,13.90
2022-10-16T16:20:19.427Z,13.90
2022-10-16T16:22:46.317Z,13.80
2022-10-16T16:25:13.284Z,13.70
2022-10-16T16:27:40.163Z,13.70
2022-10-16T16:30:08.275Z,13.60
2022-10-16T16:32:35.915Z,13.50
2022-10-16T16:35:04.053Z,13.50
2022-10-16T16:37:31.011Z,13.40
2022-10-16T16:39:59.498Z,13.30
2022-10-16T16:42:27.664Z,13.20
2022-10-16T16:44:54.937Z,13.20
2022-10-16T16:47:21.870Z,13.10
2022-10-16T16:49:48.720Z,13.00
2022-10-16T16:52:16.059Z,12.90
2022-10-16T16:54:43.263Z,12.80
2022-10-16T16:57:10.086Z,12.70
2022-10-16T16:59:37.215Z,12.60
2022-10-16T17:02:04.680Z,12.60
2022-10-16T17:04:31.599Z,12.50
2022-10-16T17:06:58.424Z,12.40
2022-10-16T17:09:25.254Z,12.40
2022-10-16T17:11:52.144Z,12.30
2022-10-16T17:14:20.015Z,12.20
2022-10-16T17:16:48.724Z,12.20
2022-10-16T17:19:18.391Z,12.10
2022-10-16T17:21:45.291Z,12.00
2022-10-16T17:24:12.226Z,12.00
2022-10-16T17:26:41.377Z,11.90
2022-10-16T17:29:08.571Z,11.80
2022-10-16T17:31:36.854Z,11.80
2022-10-16T17:34:06.212Z,11.70
2022-10-16T17:36:34.885Z,11.70
2022-10-16T17:39:04.744Z,11.70
2022-10-16T17:41:35.689Z,11.60
2022-10-16T17:44:02.922Z,11.50
2022-10-16T17:46:29.777Z,11.50
2022-10-16T17:48:56.754Z,11.50
2022-10-16T17:51:27.193Z,11.40
2022-10-16T17:53:56.837Z,11.40
2022-10-16T17:56:24.480Z,11.30
2022-10-16T17:58:53.254Z,11.30
2022-10-16T18:01:26.016Z,11.30
2022-10-16T18:03:58.742Z,11.30
2022-10-16T18:06:26.183Z,11.20
2022-10-16T18:09:14.134Z,11.10
2022-10-16T18:11:41.360Z,11.10
2022-10-16T18:14:08.267Z,11.10
2022-10-16T18:16:36.735Z,11.00
2022-10-16T18:19:03.806Z,11.00
2022-10-16T18:21:30.773Z,10.90
2022-10-16T18:23:59.110Z,10.90
2022-10-16T18:26:26.114Z,10.90
2022-10-16T18:28:57.235Z,10.90
2022-10-16T18:31:26.510Z,10.80
2022-10-16T18:33:53.984Z,10.80
2022-10-16T18:36:23.236Z,10.80
2022-10-16T18:38:50.659Z,10.80
2022-10-16T18:41:18.875Z,10.70
2022-10-16T18:43:45.795Z,10.60
2022-10-16T18:46:15.324Z,10.60
2022-10-16T18:48:42.756Z,10.60
2022-10-16T18:51:17.114Z,10.50
2022-10-16T18:53:46.072Z,10.50
2022-10-16T18:56:16.587Z,10.40
2022-10-16T18:58:45.089Z,10.40
2022-10-16T19:01:16.179Z,10.40
2022-10-16T19:03:43.767Z,10.30
2022-10-16T19:06:13.660Z,10.30
2022-10-16T19:08:42.487Z,10.30
2022-10-16T19:11:15.304Z,10.30
2022-10-16T19:13:43.156Z,10.30
2022-10-16T19:16:20.267Z,10.30
2022-10-16T19:18:48.888Z,10.20
2022-10-16T19:21:16.044Z,10.20
2022-10-16T19:23:43.170Z,10.10
2022-10-16T19:26:12.814Z,10.10
2022-10-16T19:28:40.451Z,10.00
2022-10-16T19:31:36.852Z,10.00
2022-10-16T19:34:07.558Z,9.90
2022-10-16T19:36:37.258Z,9.90
2022-10-16T19:39:06.775Z,9.90
2022-10-16T19:41:43.063Z,9.80
2022-10-16T19:44:16.404Z,9.80
2022-10-16T19:46:44.076Z,9.70
2022-10-16T19:49:14.101Z,9.70
2022-10-16T19:51:41.561Z,9.70
2022-10-16T19:54:12.552Z,9.70
2022-10-16T19:56:40.241Z,9.70
2022-10-16T19:59:08.580Z,9.70
2022-10-16T20:01:35.563Z,9.70
2022-10-16T20:04:02.506Z,9.60
2022-10-16T20:06:29.440Z,9.60
2022-10-16T20:09:08.630Z,9.60
2022-10-16T20:11:36.505Z,9.60
2022-10-16T20:14:04.136Z,9.60
2022-10-16T20:16:31.600Z,9.60
2022-10-16T20:18:59.154Z,9.60
2022-10-16T20:21:28.762Z,9.60
2022-10-16T20:23:55.928Z,9.60
2022-10-16T20:26:25.996Z,9.50
2022-10-16T20:28:54.385Z,9.50
2022-10-16T20:31:24.676Z,9.50
2022-10-16T20:33:53.195Z,9.50
2022-10-16T20:36:22.190Z,9.50
2022-10-16T20:38:49.309Z,9.50
2022-10-16T20:41:16.917Z,9.50
2022-10-16T20:43:45.963Z,9.40
2022-10-16T20:46:14.698Z,9.40
2022-10-16T20:48:47.102Z,9.40
2022-10-16T20:51:16.888Z,9.40
2022-10-16T20:53:46.613Z,9.40
2022-10-16T20:56:15.906Z,9.40
2022-10-16T20:58:42.877Z,9.40
2022-10-16T21:01:12.205Z,9.30
2022-10-16T21:03:39.130Z,9.30
2022-10-16T21:06:07.472Z,9.40
2022-10-16T21:08:36.677Z,9.30
2022-10-16T21:11:13.883Z,9.40
2022-10-16T21:13:41.402Z,9.40
2022-10-16T21:16:09.593Z,9.30
2022-10-16T21:18:38.767Z,9.30
2022-10-16T21:21:09.087Z,9.30
2022-10-16T21:23:36.014Z,9.30
2022-10-16T21:26:02.935Z,9.30
2022-10-16T21:28:33.003Z,9.30
2022-10-16T21:31:00.959Z,9.30
2022-10-16T21:33:29.068Z,9.30
2022-10-16T21:35:55.795Z,9.30
2022-10-16T21:38:22.992Z,9.20
2022-10-16T21:40:49.848Z,9.20
2022-10-16T21:43:16.641Z,9.20
2022-10-16T21:45:43.561Z,9.20
2022-10-16T21:48:10.352Z,9.20
2022-10-16T21:50:37.177Z,9.20
2022-10-16T21:53:03.964Z,9.20
2022-10-16T21:55:31.159Z,9.20
2022-10-16T21:57:57.945Z,9.20
2022-10-16T22:00:24.709Z,9.20
2022-10-16T22:02:51.489Z,9.20
2022-10-16T22:05:18.245Z,9.20
2022-10-16T22:07:45.030Z,9.20
2022-10-16T22:10:11.861Z,9.20
2022-10-16T22:12:39.903Z,9.30
2022-10-16T22:15:07.439Z,9.30
2022-10-16T22:17:34.311Z,9.30
2022-10-16T22:20:01.118Z,9.30
2022-10-16T22:22:27.931Z,9.30
2022-10-16T22:24:54.788Z,9.30
2022-10-16T22:27:21.582Z,9.30
2022-10-16T22:29:52.083Z,9.30
2022-10-16T22:32:19.580Z,9.30
2022-10-16T22:34:46.756Z,9.30
2022-10-16T22:37:13.546Z,9.30
2022-10-16T22:39:40.340Z,9.30
2022-10-16T22:42:07.194Z,9.30
2022-10-16T22:44:33.968Z,9.40
2022-10-16T22:47:00.714Z,9.40
2022-10-16T22:49:27.658Z,9.40
2022-10-16T22:51:54.441Z,9.40
2022-10-16T22:54:21.252Z,9.40
2022-10-16T22:56:48.040Z,9.40
2022-10-16T22:59:14.838Z,9.30
2022-10-16T23:01:42.623Z,9.30
2022-10-16T23:04:09.438Z,9.30
2022-10-16T23:06:36.260Z,9.30
2022-10-16T23:09:03.593Z,9.30
2022-10-16T23:11:30.938Z,9.30
2022-10-16T23:13:58.316Z,9.30
2022-10-16T23:16:25.507Z,9.30
2022-10-16T23:18:52.926Z,9.30
2022-10-16T23:21:24.840Z,9.40
2022-10-16T23:23:53.365Z,9.40
2022-10-16T23:26:22.740Z,9.40
2022-10-16T23:28:49.823Z,9.50
2022-10-16T23:31:17.701Z,9.50
2022-10-16T23:33:44.737Z,9.50
2022-10-16T23:36:14.741Z,9.50
2022-10-16T23:38:41.693Z,9.50
2022-10-16T23:41:08.488Z,9.50
2022-10-16T23:43:35.667Z,9.50
2022-10-16T23:46:02.681Z,9.50
2022-10-16T23:48:29.821Z,9.40
2022-10-16T23:50:56.767Z,9.40
2022-10-16T23:53:23.920Z,9.30
2022-10-16T23:55:50.718Z,9.30
2022-10-16T23:58:18.876Z,9.30
